Accueil
METAR-TAF:

METAR-TAF

Aéroports :

Birmingham, Angleterre

Aéroport de Birmingham

latitude: 52-27N, longitude: 001-44W, altitude: 99 m

Observation

Le bulletin a été fait il y a 31 minutes, à 08:20 UTC
Vent 6 kt de ouest, variant entre sud-ouest et ouest/nord-ouest
Température 15°C
Humidité 77%
Pression 1020 hPa
Visibilité 10 km ou plus
Nuages épars à une hauteur de 2700 ft
Nuages fragmentés à une hauteur de 3200 ft

METAR: EGBB 230820Z 26006KT 220V290 9999 SCT027 BKN032 15/11 Q1020

Heure: 09:51 (08:51 UTC)

Prévision

Le bulletin a été fait il y a 3 heures et 50 minutes, à 05:01 UTC
Prévision valable du 23 à 06 UTC au 24 à 06 UTC
Vent 6 kt de ouest
Visibilité 10 km ou plus
Nuages épars à une hauteur de 4000 ft

TAF: EGBB 230501Z 2306/2406 27006KT 9999 SCT040

Observations et prévisions météorologiques de plus de 4000 aéroports (messages METAR et TAF).

Les stations disponibles sont représentées par des disques jaunes et rouges sur la carte.

Passer la souris dessus pour voir le nom de la station.

Cliquer dessus pour voir les observations et prévisions météorologiques.

Pour changer de carte: cliquez sur les boutons verts avec une croix noire pour zoomer, sur le bouton vert avec un tiret pour effectuer un zoom arrière, ou sur les flèches vertes pour les cartes adjacentes.


METAR-TAF: